Time;durP1;ratioP1;P1;durP2;ratioP2;P2;SDS_P1;SDS_P2;PMS_P1;PMS_P2;Temp;Humidity;BMP_temperature;BMP_pressure;BME280_temperature;BME280_humidity;BME280_pressure;Samples;Min_cycle;Max_cycle;Signal;HPM_P1;HPM_P2
2022/04/18 00:02:13;;;;;;;;;;;6.20;52.50;;;;;;5062877;28;19931;-68
2022/04/18 00:04:38;;;;;;;;;;;6.20;52.50;;;;;;5080270;28;19979;-68
2022/04/18 00:07:04;;;;;;;;;;;6.20;52.80;;;;;;5063130;28;19992;-69
2022/04/18 00:09:30;;;;;;;;;;;6.10;53.40;;;;;;5081011;28;19915;-68
2022/04/18 00:11:57;;;;;;;;;;;6.20;53.80;;;;;;5080602;28;19908;-68
2022/04/18 00:14:23;;;;;;;;;;;6.20;53.90;;;;;;5080802;28;19912;-68
2022/04/18 00:16:49;;;;;;;;;;;6.10;53.90;;;;;;5080996;28;19912;-68
2022/04/18 00:19:15;;;;;;;;;;;6.20;54.10;;;;;;5080642;28;20018;-69
2022/04/18 00:21:40;;;;;;;;;;;6.20;54.30;;;;;;5080750;28;19915;-68
2022/04/18 00:24:06;;;;;;;;;;;6.20;54.60;;;;;;5080864;28;20158;-68
2022/04/18 00:26:32;;;;;;;;;;;6.20;54.70;;;;;;5081022;28;20004;-68
2022/04/18 00:28:57;;;;;;;;;;;6.20;55.10;;;;;;5082225;28;19916;-68
2022/04/18 00:31:23;;;;;;;;;;;6.10;55.60;;;;;;5084195;28;19908;-68
2022/04/18 00:33:49;;;;;;;;;;;6.10;55.80;;;;;;5083937;28;20000;-68
2022/04/18 00:36:14;;;;;;;;;;;6.00;56.30;;;;;;5084310;28;19908;-68
2022/04/18 00:38:44;;;;;;;;;;;6.00;56.90;;;;;;5084298;28;19908;-68
2022/04/18 00:41:09;;;;;;;;;;;6.00;56.60;;;;;;5084007;28;19908;-68
2022/04/18 00:43:45;;;;;;;;;;;6.00;56.90;;;;;;5084141;28;20018;-68
2022/04/18 00:46:12;;;;;;;;;;;5.90;57.40;;;;;;5084327;28;19913;-68
2022/04/18 00:48:37;;;;;;;;;;;5.90;57.40;;;;;;5049538;28;19939;-68
2022/04/18 00:51:17;;;;;;;;;;;5.90;57.80;;;;;;5084008;28;20077;-68
2022/04/18 00:53:43;;;;;;;;;;;5.80;57.90;;;;;;5066145;28;19912;-68
2022/04/18 00:56:12;;;;;;;;;;;5.80;58.30;;;;;;5084119;28;19908;-69
2022/04/18 00:58:39;;;;;;;;;;;5.80;58.10;;;;;;5084120;28;19950;-69
2022/04/18 01:01:04;;;;;;;;;;;5.80;58.50;;;;;;5083936;28;19916;-68
2022/04/18 01:03:31;;;;;;;;;;;5.80;58.40;;;;;;5083222;28;19989;-68
2022/04/18 01:06:01;;;;;;;;;;;5.80;58.80;;;;;;5084407;28;19916;-68
2022/04/18 01:08:32;;;;;;;;;;;5.80;59.00;;;;;;5066676;28;20104;-69
2022/04/18 01:10:58;;;;;;;;;;;5.80;59.50;;;;;;5084079;28;19916;-70
2022/04/18 01:13:23;;;;;;;;;;;5.70;60.10;;;;;;5066487;28;19912;-69
2022/04/18 01:15:55;;;;;;;;;;;5.70;60.90;;;;;;5065294;28;19908;-70
2022/04/18 01:18:21;;;;;;;;;;;5.70;60.80;;;;;;5084161;28;19908;-69
2022/04/18 01:20:47;;;;;;;;;;;5.60;60.70;;;;;;5083876;28;19939;-69
2022/04/18 01:23:12;;;;;;;;;;;5.60;61.10;;;;;;5083611;28;19920;-68
2022/04/18 01:31:06;;;;;;;;;;;5.60;62.10;;;;;;5082972;28;19919;-69
2022/04/18 01:33:32;;;;;;;;;;;5.60;62.50;;;;;;5083244;28;19944;-68
2022/04/18 01:35:58;;;;;;;;;;;5.60;62.40;;;;;;5083532;28;20226;-69
2022/04/18 01:38:24;;;;;;;;;;;5.60;62.80;;;;;;5083412;28;19909;-69
2022/04/18 01:40:50;;;;;;;;;;;5.60;62.80;;;;;;5064241;28;19915;-69
2022/04/18 01:43:15;;;;;;;;;;;5.60;63.20;;;;;;5065381;28;19916;-68
2022/04/18 01:45:41;;;;;;;;;;;5.50;63.90;;;;;;5082924;28;20147;-68
2022/04/18 01:48:07;;;;;;;;;;;5.50;66.40;;;;;;5083024;28;19954;-69
2022/04/18 01:50:32;;;;;;;;;;;5.50;68.90;;;;;;5083116;28;19965;-69
2022/04/18 01:52:58;;;;;;;;;;;5.60;69.70;;;;;;5082618;28;19935;-68
2022/04/18 01:55:24;;;;;;;;;;;5.60;70.60;;;;;;5083051;28;19938;-68
2022/04/18 01:57:50;;;;;;;;;;;5.50;70.30;;;;;;5083060;28;20072;-69
2022/04/18 02:00:15;;;;;;;;;;;5.40;70.60;;;;;;5082658;28;19909;-69
2022/04/18 02:02:41;;;;;;;;;;;5.40;71.60;;;;;;5082403;28;19931;-68
2022/04/18 02:05:08;;;;;;;;;;;5.30;72.10;;;;;;5081871;28;19916;-68
2022/04/18 02:07:33;;;;;;;;;;;5.20;73.20;;;;;;5082772;28;20141;-69
2022/04/18 02:09:59;;;;;;;;;;;5.30;73.50;;;;;;5082765;28;19915;-69
2022/04/18 02:12:25;;;;;;;;;;;5.10;74.50;;;;;;5082416;28;20202;-68
2022/04/18 02:14:51;;;;;;;;;;;5.10;74.60;;;;;;5082657;28;19912;-68
2022/04/18 02:17:16;;;;;;;;;;;5.10;74.10;;;;;;5081841;28;19987;-68
2022/04/18 02:19:44;;;;;;;;;;;5.10;74.60;;;;;;5082431;28;19908;-68
2022/04/18 02:22:10;;;;;;;;;;;5.10;74.50;;;;;;5081998;28;19930;-69
2022/04/18 02:24:36;;;;;;;;;;;5.10;74.40;;;;;;5082527;28;19912;-68
2022/04/18 02:27:02;;;;;;;;;;;5.10;74.50;;;;;;5082506;28;19908;-68
2022/04/18 02:29:27;;;;;;;;;;;5.10;75.40;;;;;;5082636;28;19908;-68
2022/04/18 02:34:37;;;;;;;;;;;5.10;77.00;;;;;;5066866;28;19960;-68
2022/04/18 02:37:03;;;;;;;;;;;5.00;77.70;;;;;;5082205;28;20214;-68
2022/04/18 02:39:30;;;;;;;;;;;4.90;78.20;;;;;;5064306;28;19976;-68
2022/04/18 02:41:57;;;;;;;;;;;5.00;78.90;;;;;;5120487;22;20309;-71
2022/04/18 02:44:23;;;;;;;;;;;4.90;79.50;;;;;;5124000;28;20217;-72
2022/04/18 02:46:49;;;;;;;;;;;4.90;80.00;;;;;;5105962;28;19908;-72
2022/04/18 02:49:15;;;;;;;;;;;4.80;80.20;;;;;;5105963;28;19908;-72
2022/04/18 02:51:41;;;;;;;;;;;4.80;80.90;;;;;;5123364;28;19952;-72
2022/04/18 02:54:07;;;;;;;;;;;4.70;81.00;;;;;;5123833;28;19933;-71
2022/04/18 02:56:32;;;;;;;;;;;4.60;81.70;;;;;;5123678;28;19943;-72
2022/04/18 02:58:58;;;;;;;;;;;4.50;82.00;;;;;;5105879;28;19915;-71
2022/04/18 03:01:23;;;;;;;;;;;4.50;82.20;;;;;;5123438;28;20367;-72
2022/04/18 03:03:49;;;;;;;;;;;4.50;82.50;;;;;;5104625;28;19908;-73
2022/04/18 03:06:15;;;;;;;;;;;4.50;82.60;;;;;;5103057;28;19908;-71
2022/04/18 03:08:40;;;;;;;;;;;4.30;83.30;;;;;;5103430;28;19912;-71
2022/04/18 03:11:07;;;;;;;;;;;4.30;83.80;;;;;;5084997;28;19974;-74
2022/04/18 03:13:33;;;;;;;;;;;4.30;84.80;;;;;;5085139;28;20119;-72
2022/04/18 03:15:59;;;;;;;;;;;4.20;85.10;;;;;;5068536;28;19908;-71
2022/04/18 03:18:26;;;;;;;;;;;4.10;85.40;;;;;;5085411;28;20270;-71
2022/04/18 03:20:52;;;;;;;;;;;4.10;85.80;;;;;;5068043;28;19971;-72
2022/04/18 03:23:17;;;;;;;;;;;4.10;86.10;;;;;;5068459;28;19930;-72
2022/04/18 03:25:43;;;;;;;;;;;4.10;85.80;;;;;;5085271;28;19943;-71
2022/04/18 03:28:11;;;;;;;;;;;4.10;85.40;;;;;;5103094;28;19908;-75
2022/04/18 03:30:37;;;;;;;;;;;4.10;85.20;;;;;;5085188;28;20370;-71
2022/04/18 03:33:03;;;;;;;;;;;4.10;85.00;;;;;;5085185;28;19920;-72
2022/04/18 03:35:30;;;;;;;;;;;4.10;85.20;;;;;;5102886;28;19909;-74
2022/04/18 03:40:43;;;;;;;;;;;4.10;84.90;;;;;;5101695;28;19975;-72
2022/04/18 03:43:09;;;;;;;;;;;4.10;84.90;;;;;;5102051;28;19908;-71
2022/04/18 03:45:34;;;;;;;;;;;4.10;85.00;;;;;;5102005;28;19971;-71
2022/04/18 03:48:00;;;;;;;;;;;4.00;85.50;;;;;;5101960;28;20149;-71
2022/04/18 03:50:26;;;;;;;;;;;4.10;85.80;;;;;;5101631;28;19916;-71
2022/04/18 03:52:51;;;;;;;;;;;4.10;86.00;;;;;;5083596;28;20238;-73
2022/04/18 03:55:17;;;;;;;;;;;4.10;86.00;;;;;;5101958;28;19961;-71
2022/04/18 03:57:43;;;;;;;;;;;4.10;85.80;;;;;;5101852;28;19975;-71
2022/04/18 04:00:09;;;;;;;;;;;4.10;86.10;;;;;;5101915;28;19908;-71
2022/04/18 04:02:35;;;;;;;;;;;4.10;86.30;;;;;;5101596;28;20087;-71
2022/04/18 04:05:01;;;;;;;;;;;4.00;86.60;;;;;;5104443;28;19984;-72
2022/04/18 04:07:26;;;;;;;;;;;4.10;86.70;;;;;;5105857;28;19923;-71
2022/04/18 04:09:53;;;;;;;;;;;4.10;86.80;;;;;;5087715;28;19908;-72
2022/04/18 04:12:26;;;;;;;;;;;4.10;86.80;;;;;;5098478;28;19947;-72
2022/04/18 04:14:52;;;;;;;;;;;4.10;87.60;;;;;;5085208;28;19984;-71
2022/04/18 04:17:18;;;;;;;;;;;4.10;88.00;;;;;;5085186;28;19908;-71
2022/04/18 04:19:44;;;;;;;;;;;3.90;88.20;;;;;;5103589;28;19988;-71
2022/04/18 04:22:10;;;;;;;;;;;3.80;89.00;;;;;;5105178;28;20175;-72
2022/04/18 04:24:36;;;;;;;;;;;3.80;89.30;;;;;;5087252;28;19908;-71
2022/04/18 04:27:02;;;;;;;;;;;3.90;89.50;;;;;;5105067;28;19941;-72
2022/04/18 04:29:27;;;;;;;;;;;3.90;89.40;;;;;;5086994;28;19915;-71
2022/04/18 04:31:53;;;;;;;;;;;3.80;89.20;;;;;;5086541;28;19908;-72
2022/04/18 04:34:19;;;;;;;;;;;3.80;89.10;;;;;;5104652;28;19912;-72
2022/04/18 04:36:44;;;;;;;;;;;3.70;89.70;;;;;;5105035;28;19974;-74
2022/04/18 04:39:10;;;;;;;;;;;3.70;89.60;;;;;;5104825;28;20083;-71
2022/04/18 04:41:36;;;;;;;;;;;3.80;89.40;;;;;;5104357;28;19957;-72
2022/04/18 04:44:03;;;;;;;;;;;3.80;89.20;;;;;;5104966;28;19908;-72
2022/04/18 04:46:28;;;;;;;;;;;3.90;89.00;;;;;;5086709;28;19916;-71
2022/04/18 04:48:54;;;;;;;;;;;3.90;88.50;;;;;;5104761;28;20250;-72
2022/04/18 04:51:21;;;;;;;;;;;3.90;88.50;;;;;;5104036;28;19950;-72
2022/04/18 04:53:46;;;;;;;;;;;3.80;88.70;;;;;;5104440;28;19912;-71
2022/04/18 04:56:12;;;;;;;;;;;3.80;88.70;;;;;;5104637;28;19919;-72
2022/04/18 04:58:38;;;;;;;;;;;3.80;88.50;;;;;;5104419;28;19953;-71
2022/04/18 05:01:03;;;;;;;;;;;3.80;88.50;;;;;;5104169;28;19978;-72
2022/04/18 05:03:29;;;;;;;;;;;3.90;88.40;;;;;;5104704;28;19939;-74
2022/04/18 05:05:55;;;;;;;;;;;3.80;88.50;;;;;;5103512;28;19908;-71
2022/04/18 05:08:20;;;;;;;;;;;3.80;88.60;;;;;;5104445;28;19953;-71
2022/04/18 05:10:46;;;;;;;;;;;3.80;89.00;;;;;;5103789;28;20299;-72
2022/04/18 05:13:12;;;;;;;;;;;3.80;88.80;;;;;;5104090;28;19919;-71
2022/04/18 05:15:38;;;;;;;;;;;3.90;88.80;;;;;;5086117;28;19908;-71
2022/04/18 05:18:04;;;;;;;;;;;3.90;88.80;;;;;;5104134;28;19908;-74
2022/04/18 05:20:29;;;;;;;;;;;4.00;88.40;;;;;;5103671;28;19908;-72
2022/04/18 05:22:55;;;;;;;;;;;4.00;88.00;;;;;;5104432;28;19908;-72
2022/04/18 05:25:22;;;;;;;;;;;4.10;88.00;;;;;;5104040;28;19908;-72
2022/04/18 05:27:48;;;;;;;;;;;4.20;87.90;;;;;;5104204;28;19945;-72
2022/04/18 05:30:14;;;;;;;;;;;4.30;87.20;;;;;;5104001;28;19908;-72
2022/04/18 05:32:39;;;;;;;;;;;4.40;86.80;;;;;;5103637;28;19967;-72
2022/04/18 05:35:06;;;;;;;;;;;4.50;86.40;;;;;;5103545;28;19931;-72
2022/04/18 05:37:31;;;;;;;;;;;4.50;86.30;;;;;;5103811;28;19969;-72
2022/04/18 05:39:57;;;;;;;;;;;4.60;86.40;;;;;;5103793;28;19936;-72
2022/04/18 05:42:23;;;;;;;;;;;4.60;85.90;;;;;;5103355;28;19912;-72
2022/04/18 05:44:49;;;;;;;;;;;4.70;85.60;;;;;;5103787;28;19931;-72
2022/04/18 05:47:15;;;;;;;;;;;4.80;85.50;;;;;;5103776;28;19908;-72
2022/04/18 05:49:41;;;;;;;;;;;4.90;85.10;;;;;;5103457;28;19908;-72
2022/04/18 05:52:07;;;;;;;;;;;4.90;85.00;;;;;;5103145;28;19908;-73
2022/04/18 05:54:33;;;;;;;;;;;5.00;84.80;;;;;;5103362;28;19994;-75
2022/04/18 05:57:01;;;;;;;;;;;5.10;84.40;;;;;;5103429;28;20167;-74
2022/04/18 05:59:27;;;;;;;;;;;5.20;84.30;;;;;;5103568;28;19954;-72
2022/04/18 06:01:52;;;;;;;;;;;5.20;84.10;;;;;;5102897;28;20141;-76
2022/04/18 06:04:18;;;;;;;;;;;5.30;84.20;;;;;;5103110;28;19927;-72
2022/04/18 06:06:44;;;;;;;;;;;5.30;83.90;;;;;;5102271;28;19912;-71
2022/04/18 06:09:10;;;;;;;;;;;5.30;83.60;;;;;;5103202;28;19908;-72
2022/04/18 06:11:35;;;;;;;;;;;5.40;83.10;;;;;;5102900;28;20199;-72
2022/04/18 06:14:01;;;;;;;;;;;5.40;83.10;;;;;;5103072;28;19912;-72
2022/04/18 06:16:27;;;;;;;;;;;5.50;83.40;;;;;;5102940;28;19967;-72
2022/04/18 06:18:52;;;;;;;;;;;5.50;83.30;;;;;;5103057;28;19960;-72
2022/04/18 06:21:18;;;;;;;;;;;5.60;83.40;;;;;;5102445;28;19908;-73
2022/04/18 06:23:44;;;;;;;;;;;5.60;83.70;;;;;;5102932;28;20203;-73
2022/04/18 06:26:09;;;;;;;;;;;5.60;83.60;;;;;;5084355;28;19969;-74
2022/04/18 06:28:35;;;;;;;;;;;5.70;83.20;;;;;;5103169;28;19975;-72
2022/04/18 06:31:01;;;;;;;;;;;5.80;83.40;;;;;;5102403;28;19943;-72
2022/04/18 06:33:28;;;;;;;;;;;5.80;82.40;;;;;;5102707;28;20002;-72
2022/04/18 06:35:54;;;;;;;;;;;5.90;82.80;;;;;;5102283;28;19908;-73
2022/04/18 06:38:19;;;;;;;;;;;6.10;81.70;;;;;;5102659;28;19908;-73
2022/04/18 06:40:45;;;;;;;;;;;6.20;81.30;;;;;;5102241;28;19949;-72
2022/04/18 06:43:11;;;;;;;;;;;6.30;80.60;;;;;;5091082;28;20038;-73
2022/04/18 06:45:36;;;;;;;;;;;6.50;80.00;;;;;;5082331;28;19954;-73
2022/04/18 06:48:02;;;;;;;;;;;6.50;79.70;;;;;;5082396;28;19946;-74
2022/04/18 06:50:27;;;;;;;;;;;6.60;78.00;;;;;;5081938;28;19975;-74
2022/04/18 06:52:54;;;;;;;;;;;6.60;77.90;;;;;;5083843;28;20467;-70
2022/04/18 06:55:20;;;;;;;;;;;6.70;77.70;;;;;;5093367;28;19929;-72
2022/04/18 06:57:45;;;;;;;;;;;6.80;77.30;;;;;;5102225;28;19912;-72
2022/04/18 07:00:11;;;;;;;;;;;6.90;77.20;;;;;;5102672;28;19962;-72
2022/04/18 07:02:44;;;;;;;;;;;7.10;76.80;;;;;;5102034;28;19999;-72
2022/04/18 07:05:10;;;;;;;;;;;7.20;75.90;;;;;;5083905;28;19979;-68
2022/04/18 07:07:36;;;;;;;;;;;7.30;75.90;;;;;;5102288;28;20375;-71
2022/04/18 07:10:03;;;;;;;;;;;7.30;75.30;;;;;;5101008;28;19953;-71
2022/04/18 07:12:28;;;;;;;;;;;7.50;75.40;;;;;;5083240;28;19978;-71
2022/04/18 07:14:58;;;;;;;;;;;7.60;75.30;;;;;;5102160;28;19912;-69
2022/04/18 07:17:24;;;;;;;;;;;7.70;74.50;;;;;;5101697;28;19939;-72
2022/04/18 07:19:50;;;;;;;;;;;7.80;74.50;;;;;;5101939;28;19908;-71
2022/04/18 07:22:16;;;;;;;;;;;7.90;73.60;;;;;;5082880;28;19912;-70
2022/04/18 07:24:42;;;;;;;;;;;8.00;72.80;;;;;;5101506;28;19919;-69
2022/04/18 07:27:07;;;;;;;;;;;8.10;72.40;;;;;;5083868;28;19919;-71
2022/04/18 07:29:33;;;;;;;;;;;8.20;72.40;;;;;;5101758;28;19912;-71
2022/04/18 07:31:59;;;;;;;;;;;8.30;72.40;;;;;;5101630;28;19908;-71
2022/04/18 07:34:25;;;;;;;;;;;8.40;72.20;;;;;;5101482;28;19919;-71
2022/04/18 07:36:50;;;;;;;;;;;8.40;71.30;;;;;;5082960;28;19908;-72
2022/04/18 07:39:16;;;;;;;;;;;8.50;70.20;;;;;;5065782;28;19909;-70
2022/04/18 07:41:42;;;;;;;;;;;8.60;70.00;;;;;;5100946;28;20107;-71
2022/04/18 07:44:07;;;;;;;;;;;8.60;70.20;;;;;;5105806;28;19971;-69
2022/04/18 07:46:33;;;;;;;;;;;8.70;70.30;;;;;;5105571;28;19908;-70
2022/04/18 07:48:59;;;;;;;;;;;8.80;69.60;;;;;;5087722;28;20213;-69
2022/04/18 07:51:40;;;;;;;;;;;8.90;69.10;;;;;;5104117;28;19914;-68
2022/04/18 07:54:07;;;;;;;;;;;9.00;69.20;;;;;;5105136;28;19912;-70
2022/04/18 07:56:33;;;;;;;;;;;9.30;68.20;;;;;;5105038;28;19908;-70
2022/04/18 07:58:59;;;;;;;;;;;9.30;68.00;;;;;;5105182;28;19916;-69
2022/04/18 08:01:25;;;;;;;;;;;9.40;67.90;;;;;;5103959;28;19927;-69
2022/04/18 08:03:51;;;;;;;;;;;9.60;67.40;;;;;;5104645;28;19908;-68
2022/04/18 08:06:16;;;;;;;;;;;9.60;66.90;;;;;;5103636;28;20120;-69
2022/04/18 08:08:42;;;;;;;;;;;9.70;65.50;;;;;;5105229;28;20297;-69
2022/04/18 08:11:11;;;;;;;;;;;9.70;66.10;;;;;;5096250;28;20171;-72
2022/04/18 08:13:47;;;;;;;;;;;9.80;66.70;;;;;;5084482;28;20199;-73
2022/04/18 08:16:13;;;;;;;;;;;10.00;64.80;;;;;;5083884;28;19915;-71
2022/04/18 08:18:41;;;;;;;;;;;10.10;65.30;;;;;;5086973;28;20191;-67
2022/04/18 08:21:08;;;;;;;;;;;10.20;65.10;;;;;;5104605;28;20106;-67
2022/04/18 08:23:34;;;;;;;;;;;10.30;64.00;;;;;;5085870;28;19962;-69
2022/04/18 08:25:59;;;;;;;;;;;10.30;62.70;;;;;;5104108;28;19908;-67
2022/04/18 08:28:26;;;;;;;;;;;10.50;59.60;;;;;;5104823;28;19908;-69
2022/04/18 08:30:52;;;;;;;;;;;10.50;60.80;;;;;;5103590;28;20083;-68
2022/04/18 08:33:18;;;;;;;;;;;10.50;59.40;;;;;;5104857;28;19992;-71
2022/04/18 08:35:43;;;;;;;;;;;10.60;59.70;;;;;;5104154;28;19923;-71
2022/04/18 08:38:09;;;;;;;;;;;10.80;55.90;;;;;;5104938;28;19939;-68
2022/04/18 08:40:35;;;;;;;;;;;11.30;51.20;;;;;;5103679;28;19908;-68
2022/04/18 08:43:00;;;;;;;;;;;11.60;48.90;;;;;;5104294;22;19951;-67
2022/04/18 08:45:26;;;;;;;;;;;11.80;48.60;;;;;;5097071;28;19914;-67
2022/04/18 08:53:27;;;;;;;;;;;12.00;47.10;;;;;;5105526;28;20002;-67
2022/04/18 08:55:53;;;;;;;;;;;12.10;46.50;;;;;;5105363;28;19938;-67
2022/04/18 08:58:19;;;;;;;;;;;12.10;48.20;;;;;;5105319;28;19911;-68
2022/04/18 09:00:44;;;;;;;;;;;12.20;48.20;;;;;;5105133;28;20158;-67
2022/04/18 09:03:10;;;;;;;;;;;12.00;46.90;;;;;;5104979;28;19915;-68
2022/04/18 09:05:37;;;;;;;;;;;12.30;47.50;;;;;;5105383;28;19915;-67
2022/04/18 09:08:07;;;;;;;;;;;12.40;48.40;;;;;;5103776;28;19982;-68
2022/04/18 09:10:33;;;;;;;;;;;12.30;46.40;;;;;;5101371;28;20420;-67
2022/04/18 09:13:10;;;;;;;;;;;12.40;45.00;;;;;;5084317;28;19931;-67
2022/04/18 09:15:42;;;;;;;;;;;12.70;43.90;;;;;;5084955;28;19915;-67
2022/04/18 09:18:12;;;;;;;;;;;12.80;44.10;;;;;;5084744;28;19908;-67
2022/04/18 09:20:41;;;;;;;;;;;12.70;43.10;;;;;;5084575;28;19908;-68
2022/04/18 09:23:35;;;;;;;;;;;12.90;43.00;;;;;;5092697;28;19916;-67
2022/04/18 09:26:05;;;;;;;;;;;13.00;45.30;;;;;;5091436;28;19924;-67
2022/04/18 09:28:40;;;;;;;;;;;13.00;44.30;;;;;;5084558;28;19971;-69
2022/04/18 09:31:10;;;;;;;;;;;13.10;44.50;;;;;;5084125;28;19954;-67
2022/04/18 09:33:58;;;;;;;;;;;13.10;44.20;;;;;;5084399;28;19912;-67
2022/04/18 09:36:24;;;;;;;;;;;13.20;44.20;;;;;;5083768;28;19919;-67
2022/04/18 09:38:51;;;;;;;;;;;13.10;47.20;;;;;;5084171;28;19909;-67
2022/04/18 09:41:24;;;;;;;;;;;13.20;45.70;;;;;;5083001;28;19915;-67
2022/04/18 09:43:52;;;;;;;;;;;13.20;45.90;;;;;;5083399;28;19915;-67
2022/04/18 09:46:17;;;;;;;;;;;13.40;43.90;;;;;;5083099;28;19909;-67
2022/04/18 09:48:44;;;;;;;;;;;13.40;45.30;;;;;;5083252;28;19915;-68
2022/04/18 09:51:29;;;;;;;;;;;13.50;44.40;;;;;;5082384;28;19908;-67
2022/04/18 09:53:57;;;;;;;;;;;13.50;45.20;;;;;;5082938;28;20244;-68
2022/04/18 09:56:23;;;;;;;;;;;13.60;44.90;;;;;;5063036;28;19916;-68
2022/04/18 09:58:49;;;;;;;;;;;13.50;46.10;;;;;;5065284;28;19908;-67
2022/04/18 10:01:16;;;;;;;;;;;13.50;46.70;;;;;;5081684;28;20146;-68
2022/04/18 10:03:42;;;;;;;;;;;13.70;46.30;;;;;;5085475;28;19979;-67
2022/04/18 10:06:08;;;;;;;;;;;13.80;42.70;;;;;;5102839;28;19908;-67
2022/04/18 10:08:34;;;;;;;;;;;13.60;41.90;;;;;;5102787;28;19918;-67
2022/04/18 10:11:01;;;;;;;;;;;13.60;43.80;;;;;;5102504;28;19915;-68
2022/04/18 10:13:27;;;;;;;;;;;13.60;45.30;;;;;;5103061;28;20230;-68
2022/04/18 10:15:53;;;;;;;;;;;13.80;46.70;;;;;;5101576;28;19945;-67
2022/04/18 10:18:19;;;;;;;;;;;14.00;45.00;;;;;;5102960;28;19908;-67
2022/04/18 10:21:03;;;;;;;;;;;14.10;44.40;;;;;;5102466;28;19975;-67
2022/04/18 10:23:51;;;;;;;;;;;14.20;43.30;;;;;;5101710;28;19930;-67
2022/04/18 10:26:51;;;;;;;;;;;14.20;44.30;;;;;;5090924;28;19926;-67
2022/04/18 10:29:24;;;;;;;;;;;14.40;44.90;;;;;;5083098;28;19909;-67
2022/04/18 10:31:52;;;;;;;;;;;14.50;43.40;;;;;;5082048;28;19930;-67
2022/04/18 10:34:23;;;;;;;;;;;14.60;43.40;;;;;;5082233;28;19975;-67
2022/04/18 10:36:52;;;;;;;;;;;14.60;43.40;;;;;;5082208;28;19979;-67
2022/04/18 10:39:19;;;;;;;;;;;14.70;41.20;;;;;;5081423;28;19928;-67
2022/04/18 10:41:46;;;;;;;;;;;14.80;40.80;;;;;;5081496;28;19916;-67
2022/04/18 10:44:13;;;;;;;;;;;15.00;43.10;;;;;;5064188;28;19908;-67
2022/04/18 10:46:42;;;;;;;;;;;15.00;42.60;;;;;;5082040;28;20312;-67
2022/04/18 10:49:18;;;;;;;;;;;15.20;43.80;;;;;;5081676;28;19909;-67
2022/04/18 10:51:48;;;;;;;;;;;15.30;42.60;;;;;;5081201;28;19916;-67
2022/04/18 10:54:28;;;;;;;;;;;15.60;41.40;;;;;;5081180;28;19912;-67
2022/04/18 10:57:11;;;;;;;;;;;15.70;41.00;;;;;;5080888;28;19908;-67
2022/04/18 10:59:44;;;;;;;;;;;15.70;39.80;;;;;;5081583;28;19915;-67
2022/04/18 11:02:41;;;;;;;;;;;15.80;39.20;;;;;;5063862;28;19908;-67
2022/04/18 11:05:07;;;;;;;;;;;15.90;39.00;;;;;;5081323;28;19915;-67
2022/04/18 11:07:39;;;;;;;;;;;16.00;40.90;;;;;;5087177;28;19975;-67
2022/04/18 11:10:21;;;;;;;;;;;16.10;38.70;;;;;;5083580;28;20046;-68
2022/04/18 11:12:47;;;;;;;;;;;16.20;38.90;;;;;;5101310;28;19908;-67
2022/04/18 11:15:12;;;;;;;;;;;16.30;40.40;;;;;;5101403;28;19927;-67
2022/04/18 11:17:40;;;;;;;;;;;16.50;37.30;;;;;;5101585;28;19939;-67
2022/04/18 11:20:28;;;;;;;;;;;16.60;37.10;;;;;;5101392;28;19926;-67
2022/04/18 11:23:15;;;;;;;;;;;16.70;39.10;;;;;;5101076;28;19935;-67
2022/04/18 11:25:56;;;;;;;;;;;16.90;38.00;;;;;;5094396;28;19951;-67
2022/04/18 11:28:23;;;;;;;;;;;17.00;39.30;;;;;;5081416;28;19909;-67
2022/04/18 11:30:49;;;;;;;;;;;17.30;38.10;;;;;;5081276;28;19919;-68
2022/04/18 11:33:15;;;;;;;;;;;17.50;37.60;;;;;;5081844;28;19916;-67
2022/04/18 11:35:41;;;;;;;;;;;17.40;34.90;;;;;;5081928;28;19908;-67
2022/04/18 11:38:07;;;;;;;;;;;17.40;37.70;;;;;;5074776;28;19946;-67
2022/04/18 11:40:39;;;;;;;;;;;17.50;37.00;;;;;;5101800;28;19927;-67
2022/04/18 11:43:16;;;;;;;;;;;17.70;36.40;;;;;;5101649;28;19979;-67
2022/04/18 11:45:41;;;;;;;;;;;18.00;37.00;;;;;;5101611;28;20227;-67
2022/04/18 11:48:10;;;;;;;;;;;18.20;38.50;;;;;;5101498;28;19909;-67
2022/04/18 11:50:39;;;;;;;;;;;18.10;35.00;;;;;;5101192;28;20087;-67
2022/04/18 11:53:06;;;;;;;;;;;18.40;37.00;;;;;;5100899;28;19936;-67
2022/04/18 11:55:32;;;;;;;;;;;18.80;34.70;;;;;;5096122;28;19975;-67
2022/04/18 11:57:58;;;;;;;;;;;18.80;34.90;;;;;;5081584;28;19908;-67
2022/04/18 12:08:39;;;;;;;;;;;19.60;34.80;;;;;;5080138;28;19990;-67
2022/04/18 12:11:04;;;;;;;;;;;20.10;34.80;;;;;;5101163;28;19912;-67
2022/04/18 12:13:31;;;;;;;;;;;20.80;33.40;;;;;;5083041;28;19914;-67
2022/04/18 12:15:59;;;;;;;;;;;21.70;32.10;;;;;;5101313;28;19915;-67
2022/04/18 12:18:25;;;;;;;;;;;22.10;31.80;;;;;;5101159;28;19908;-67
2022/04/18 12:20:51;;;;;;;;;;;23.00;30.10;;;;;;5100875;28;19908;-67
2022/04/18 12:23:24;;;;;;;;;;;23.80;29.60;;;;;;5100887;28;19915;-67
2022/04/18 12:25:51;;;;;;;;;;;25.30;29.30;;;;;;5078024;28;19916;-68
2022/04/18 12:28:21;;;;;;;;;;;27.10;27.40;;;;;;5072768;28;19980;-68
2022/04/18 12:30:47;;;;;;;;;;;28.00;27.70;;;;;;5083993;28;19920;-68
2022/04/18 12:33:22;;;;;;;;;;;28.90;25.80;;;;;;5084399;28;19916;-68
2022/04/18 12:35:52;;;;;;;;;;;29.70;25.80;;;;;;5084392;28;19909;-68
2022/04/18 12:38:19;;;;;;;;;;;30.80;24.80;;;;;;5084253;28;19912;-68
2022/04/18 12:40:46;;;;;;;;;;;31.00;24.30;;;;;;5066415;28;20108;-72
2022/04/18 12:43:16;;;;;;;;;;;31.70;23.40;;;;;;5083953;28;20223;-71
2022/04/18 12:45:49;;;;;;;;;;;32.90;23.90;;;;;;5084580;28;19917;-69
2022/04/18 12:48:20;;;;;;;;;;;33.30;23.50;;;;;;5084493;28;20166;-69
2022/04/18 12:50:45;;;;;;;;;;;33.90;23.10;;;;;;5084069;28;19936;-70
2022/04/18 12:53:11;;;;;;;;;;;34.00;22.60;;;;;;5083563;28;19908;-70
2022/04/18 12:55:37;;;;;;;;;;;35.20;23.60;;;;;;5090547;28;19908;-72
2022/04/18 12:58:03;;;;;;;;;;;35.90;22.60;;;;;;5071202;28;20163;-70
2022/04/18 13:00:35;;;;;;;;;;;35.50;21.90;;;;;;5029297;28;19920;-72
2022/04/18 13:03:04;;;;;;;;;;;36.20;21.80;;;;;;5063564;28;19909;-70
2022/04/18 13:05:30;;;;;;;;;;;36.90;21.20;;;;;;5063683;28;20188;-72
2022/04/18 13:08:03;;;;;;;;;;;36.20;21.90;;;;;;5071238;28;19914;-76
2022/04/18 13:10:30;;;;;;;;;;;35.80;21.50;;;;;;5085882;28;19908;-72
2022/04/18 13:13:18;;;;;;;;;;;37.10;22.20;;;;;;5103648;28;19908;-67
2022/04/18 13:15:45;;;;;;;;;;;37.90;21.30;;;;;;5103930;28;20218;-69
2022/04/18 13:18:13;;;;;;;;;;;37.00;21.80;;;;;;5084388;28;19908;-67
2022/04/18 13:20:39;;;;;;;;;;;36.50;22.00;;;;;;5084765;28;19908;-67
2022/04/18 13:23:06;;;;;;;;;;;37.20;21.50;;;;;;5102866;28;19912;-68
2022/04/18 13:25:32;;;;;;;;;;;37.70;21.00;;;;;;5063555;28;19944;-68
2022/04/18 13:27:58;;;;;;;;;;;37.00;21.10;;;;;;5076883;28;19961;-68
2022/04/18 13:30:24;;;;;;;;;;;36.20;21.90;;;;;;5070674;28;20203;-69
2022/04/18 13:32:51;;;;;;;;;;;36.60;21.20;;;;;;5064348;28;19917;-68
2022/04/18 13:35:17;;;;;;;;;;;36.40;21.60;;;;;;5103245;28;19965;-69
2022/04/18 13:37:47;;;;;;;;;;;36.80;21.20;;;;;;5102681;28;19974;-68
2022/04/18 13:40:13;;;;;;;;;;;37.20;21.10;;;;;;5062745;28;19983;-68
2022/04/18 13:42:40;;;;;;;;;;;37.40;21.10;;;;;;5062714;28;19912;-69
2022/04/18 13:45:11;;;;;;;;;;;37.90;21.20;;;;;;5088397;28;19915;-69
2022/04/18 13:47:41;;;;;;;;;;;37.90;21.00;;;;;;5085627;28;19908;-69
2022/04/18 13:50:11;;;;;;;;;;;38.30;21.20;;;;;;5083707;28;19908;-69
2022/04/18 13:52:40;;;;;;;;;;;38.50;21.10;;;;;;5102894;28;20183;-69
2022/04/18 13:55:09;;;;;;;;;;;37.50;20.50;;;;;;5083516;28;19920;-69
2022/04/18 13:57:36;;;;;;;;;;;37.50;21.10;;;;;;5087971;28;19920;-69
2022/04/18 14:00:03;;;;;;;;;;;37.70;21.10;;;;;;5076441;28;19927;-68
2022/04/18 14:02:29;;;;;;;;;;;38.50;20.60;;;;;;5102867;28;20302;-69
2022/04/18 14:04:55;;;;;;;;;;;37.20;20.90;;;;;;5102065;28;19915;-69
2022/04/18 14:07:20;;;;;;;;;;;36.60;20.80;;;;;;5102825;28;19978;-68
2022/04/18 14:09:46;;;;;;;;;;;37.60;20.40;;;;;;5102873;28;20003;-68
2022/04/18 14:12:12;;;;;;;;;;;36.00;20.60;;;;;;5082970;28;19943;-69
2022/04/18 14:20:23;;;;;;;;;;;36.20;20.30;;;;;;5087540;28;20115;-68
2022/04/18 14:22:50;;;;;;;;;;;35.30;20.80;;;;;;5100422;28;19915;-71
2022/04/18 14:25:16;;;;;;;;;;;34.70;21.50;;;;;;5102641;28;20211;-71
2022/04/18 14:27:42;;;;;;;;;;;34.80;21.30;;;;;;5092080;28;20223;-71
2022/04/18 14:30:08;;;;;;;;;;;35.20;21.10;;;;;;5070049;28;19916;-71
2022/04/18 14:32:34;;;;;;;;;;;34.10;21.00;;;;;;5090639;28;19908;-71
2022/04/18 14:35:00;;;;;;;;;;;34.10;20.90;;;;;;5101988;28;19934;-71
2022/04/18 14:37:26;;;;;;;;;;;34.40;21.70;;;;;;5100827;28;19936;-71
2022/04/18 14:39:52;;;;;;;;;;;34.00;21.50;;;;;;5067379;28;19943;-71
2022/04/18 14:42:19;;;;;;;;;;;33.60;21.20;;;;;;5100273;28;19920;-71
2022/04/18 14:44:45;;;;;;;;;;;32.80;21.00;;;;;;5038215;28;19998;-71
2022/04/18 14:47:11;;;;;;;;;;;33.10;22.00;;;;;;5072460;28;19985;-71
2022/04/18 14:49:38;;;;;;;;;;;32.80;21.50;;;;;;5072448;28;19916;-71
2022/04/18 14:52:04;;;;;;;;;;;33.00;21.40;;;;;;5070226;28;19932;-71
2022/04/18 14:54:30;;;;;;;;;;;32.90;21.20;;;;;;5073760;28;20172;-71
2022/04/18 14:56:55;;;;;;;;;;;32.90;21.30;;;;;;5072534;28;20180;-70